Flight Track Log - Related Links

Times and Time Zones

All times are in EDT time to prevent confusion due to time zone crossing. See the N58BS flight status page for this flight to view local times or setup timezone preferences in your user account.

Time Position Orientation Groundspeed Altitude Reporting Facility
EDT Latitude Longitude Course Direction KTS MPH feet Rate Location/Type
Sat 05:15:35 PM 28.5000 -82.7667 356° North 137 158 3,500  Level Tampa TRACON
Sat 05:15:55 PM 28.5067 -82.7672 356° North 137 158 3,600 450 Climbing Jacksonville Center
Sat 05:16:55 PM 28.5339 -82.7933 320° Northwest 156 180 4,100 550 Climbing Jacksonville Center
Sat 05:17:55 PM 28.5653 -82.8194 324° Northwest 144 166 4,700 550 Climbing Jacksonville Center
Sat 05:18:55 PM 28.5986 -82.8453 326° Northwest 144 166 5,200 550 Climbing Jacksonville Center
Sat 05:19:55 PM 28.6300 -82.8714 324° Northwest 139 160 5,800 550 Climbing Jacksonville Center
Sat 05:20:55 PM 28.6633 -82.8972 326° Northwest 139 160 6,300 350 Climbing Jacksonville Center
Sat 05:21:55 PM 28.6925 -82.9328 313° West 139 160 6,500 100 Climbing Jacksonville Center
Sat 05:22:55 PM 28.7239 -82.9706 313° West 150 173 6,500  Level Jacksonville Center
Sat 05:23:55 PM 28.7489 -83.0158 302° West 165 190 6,500  Level Jacksonville Center
Sat 05:24:55 PM 28.7717 -83.0631 299° West 171 197 6,500  Level Jacksonville Center
Sat 05:25:55 PM 28.7967 -83.1081 302° West 171 197 6,500  Level Jacksonville Center
Sat 05:26:55 PM 28.8194 -83.1556 299° West 166 191 6,500  Level Jacksonville Center
Sat 05:27:55 PM 28.8467 -83.2008 304° West 166 191 6,500  Level Jacksonville Center
Sat 05:28:55 PM 28.8694 -83.2458 300° West 166 191 6,500  Level Jacksonville Center
Sat 05:29:55 PM 28.8944 -83.2958 300° West 166 191 6,500 Level Jacksonville Center
Sat 05:31:00 PM 28.8958 -83.3329 272° West  Level FlightAware Approximate
Sat 05:38:00 PM 28.9395 -83.5723 290° West  Level FlightAware Approximate
Sat 05:39:00 PM 28.9499 -83.6044 290° West  Level FlightAware Approximate
Sat 05:40:00 PM 28.9602 -83.6366 290° West  Level FlightAware Approximate
Sat 05:41:00 PM 28.9706 -83.6687 290° West  Level FlightAware Approximate
Sat 05:42:00 PM 28.9809 -83.7009 290° West  Level FlightAware Approximate
Sat 05:43:00 PM 28.9912 -83.7330 290° West  Level FlightAware Approximate
Sat 05:44:00 PM 29.0016 -83.7652 290° West  Level FlightAware Approximate
Sat 05:45:00 PM 29.0119 -83.7974 290° West  Level FlightAware Approximate
Sat 05:46:00 PM 29.0222 -83.8296 290° West  Level FlightAware Approximate
Sat 05:47:00 PM 29.0325 -83.8618 290° West  Level FlightAware Approximate
Sat 05:48:00 PM 29.0427 -83.8940 290° West  Level FlightAware Approximate
Sat 05:49:00 PM 29.0532 -83.9261 291° West  Level FlightAware Approximate
Sat 05:50:00 PM 29.0642 -83.9580 291° West  Level FlightAware Approximate
Sat 05:51:00 PM 29.0751 -83.9899 291° West  Level FlightAware Approximate
Sat 05:52:00 PM 29.0861 -84.0218 291° West  Level FlightAware Approximate
Sat 05:53:00 PM 29.0970 -84.0537 291° West  Level FlightAware Approximate
Sat 05:54:00 PM 29.1080 -84.0857 291° West  Level FlightAware Approximate
Sat 05:55:00 PM 29.1189 -84.1176 291° West  Level FlightAware Approximate
Sat 05:56:00 PM 29.1298 -84.1496 291° West  Level FlightAware Approximate
Sat 05:57:00 PM 29.1407 -84.1815 291° West  Level FlightAware Approximate
Sat 05:58:00 PM 29.1516 -84.2135 291° West  Level FlightAware Approximate
Sat 05:58:43 PM 29.5419 -84.6997 291° West 188 216 6,600  Level Jacksonville Center
Sat 05:59:00 PM 29.1625 -84.2454 291° West  Level FlightAware Approximate
Sat 05:59:44 PM 29.5578 -84.7525 289° West 188 216 6,600  Level Jacksonville Center
Sat 06:00:00 PM 29.1734 -84.2774 291° West  Level FlightAware Approximate
Sat 06:00:43 PM 29.5736 -84.8053 289° West 188 216 6,700  Level Jacksonville Center
Sat 06:01:00 PM 29.1842 -84.3094 291° West  Level FlightAware Approximate
Sat 06:01:43 PM 29.5897 -84.8581 289° West 183 211 6,700  Level Jacksonville Center
Sat 06:02:00 PM 29.1951 -84.3414 291° West  Level FlightAware Approximate
Sat 06:02:43 PM 29.6075 -84.9086 292° West 183 211 6,700  Level Jacksonville Center
Sat 06:03:00 PM 29.2060 -84.3734 291° West  Level FlightAware Approximate
Sat 06:03:43 PM 29.6236 -84.9592 290° West 183 211 6,700  Level Jacksonville Center
Sat 06:04:43 PM 29.6394 -85.0119 289° West 177 204 6,700  Level Jacksonville Center
Sat 06:05:43 PM 29.6531 -85.0650 286° West 172 198 6,700  Level Jacksonville Center
Sat 06:06:43 PM 29.6711 -85.1131 293° West 172 198 6,700  Level Jacksonville Center
Sat 06:07:43 PM 29.6867 -85.1661 289° West 172 198 6,700  Level Jacksonville Center
Sat 06:08:43 PM 29.7025 -85.2167 290° West 172 198 6,700  Level Jacksonville Center
Sat 06:09:43 PM 29.7183 -85.2672 290° West 172 198 6,700  Level Jacksonville Center
Sat 06:10:43 PM 29.7342 -85.3178 290° West 172 198 6,700  Level Jacksonville Center
Sat 06:11:43 PM 29.7478 -85.3708 286° West 172 198 6,700  Level Jacksonville Center
Sat 06:12:43 PM 29.7656 -85.4214 292° West 172 198 6,700  Level Jacksonville Center
Sat 06:13:43 PM 29.7811 -85.4722 289° West 172 198 6,700  Level Jacksonville Center
Sat 06:14:43 PM 29.7969 -85.5228 290° West 172 198 6,700  Level Jacksonville Center
Sat 06:15:43 PM 29.8106 -85.5664 290° West 172 198 6,700  Level Jacksonville Center
Sat 06:16:43 PM 29.8261 -85.6194 289° West 172 198 6,700  Level Jacksonville Center
Sat 06:17:43 PM 29.8417 -85.6700 290° West 172 198 6,700  Level Jacksonville Center
Sat 06:18:43 PM 29.8572 -85.7208 289° West 172 198 6,700  Level Jacksonville Center
Sat 06:19:43 PM 29.8728 -85.7692 290° West 172 198 6,700  Level Jacksonville Center
Sat 06:20:43 PM 29.8864 -85.8175 288° West 172 198 6,700  Level Jacksonville Center
Sat 06:21:43 PM 29.9019 -85.8636 291° West 172 198 6,700  Level Jacksonville Center
Sat 06:22:44 PM 29.9156 -85.9119 288° West 167 192 6,700  Level Jacksonville Center
Sat 06:23:43 PM 29.9289 -85.9603 288° West 167 192 6,700  Level Jacksonville Center
Sat 06:24:43 PM 29.9447 -86.0061 292° West 167 192 6,700  Level Jacksonville Center
Sat 06:25:43 PM 29.9581 -86.0547 288° West 167 192 6,700  Level Jacksonville Center
Sat 06:27:00 PM 29.9589 -86.1006 271° West  Level FlightAware Approximate
Sat 06:34:00 PM 29.9629 -86.3508 271° West  Level FlightAware Approximate
Sat 06:35:00 PM 29.9634 -86.3866 271° West  Level FlightAware Approximate
Sat 06:36:00 PM 29.9640 -86.4223 271° West  Level FlightAware Approximate
Sat 06:36:20 PM 30.1100 -86.5531 298° West 157 181 6,700  Level Houston Center
Sat 06:37:00 PM 29.9645 -86.4581 271° West  Level FlightAware Approximate
Sat 06:37:21 PM 30.1242 -86.5989 290° West 154 177 6,700  Level Houston Center
Sat 06:38:00 PM 29.9650 -86.4938 271° West  Level FlightAware Approximate
Sat 06:38:11 PM 30.1339 -86.6511 282° West 154 177 6,700  Level Jacksonville Center
Sat 06:39:00 PM 29.9655 -86.5296 271° West  Level FlightAware Approximate
Sat 06:39:30 PM 30.1508 -86.7094 289° West 154 177 6,700  Level Jacksonville Center
Sat 06:40:00 PM 29.9660 -86.5653 271° West  Level FlightAware Approximate
Sat 06:40:24 PM 30.1619 -86.7556 286° West 152 175 6,700  Level Jacksonville Center
Sat 06:41:00 PM 29.9808 -86.5970 298° West  Level FlightAware Approximate
Sat 06:41:19 PM 30.1775 -86.7969 294° West 154 177 6,600  Level Jacksonville Center
Sat 06:42:26 PM 30.1925 -86.8528 287° West 156 180 6,600 -47 Level Jacksonville Center
Sat 06:43:26 PM 30.2056 -86.8989 288° West 156 180 6,500 -50 Descending Jacksonville Center
Sat 06:44:27 PM 30.2208 -86.9453 291° West 156 180 6,500  Level Jacksonville Center
Sat 06:45:27 PM 30.2339 -86.9914 288° West 156 180 6,500  Level Jacksonville Center
Sat 06:46:28 PM 30.2469 -87.0400 287° West 154 177 6,500  Level Jacksonville Center
Sat 06:47:29 PM 30.2622 -87.0864 291° West 156 180 6,500  Level Jacksonville Center
Sat 06:48:29 PM 30.2772 -87.1353 290° West 154 177 6,500  Level Jacksonville Center
Sat 06:49:30 PM 30.2883 -87.1814 286° West 156 180 6,500  Level Jacksonville Center
Sat 06:50:30 PM 30.3033 -87.2325 289° West 156 180 6,500  Level Jacksonville Center
Sat 06:51:31 PM 30.3164 -87.2789 288° West 158 182 6,500  Level Jacksonville Center
Sat 06:52:25 PM 30.3314 -87.3253 291° West 161 185 6,500  Level Jacksonville Center
Sat 06:53:32 PM 30.3483 -87.3814 289° West 162 186 6,500  Level Jacksonville Center
Sat 06:54:33 PM 30.3592 -87.4275 285° West 162 186 6,500  Level Jacksonville Center
Sat 06:56:51 PM 30.3969 -87.5364 292° West 163 188 6,500  Level Houston Center
Sat 06:57:52 PM 30.4103 -87.5856 287° West 162 186 6,500  Level Houston Center
Sat 06:58:54 PM 30.4247 -87.6342 289° West 160 184 6,500  Level Houston Center
Sat 06:59:55 PM 30.4375 -87.6828 287° West 159 183 6,500  Level Houston Center
Sat 07:00:57 PM 30.4514 -87.7314 288° West 159 183 6,500  Level Houston Center
Sat 07:01:58 PM 30.4653 -87.7797 288° West 159 183 6,500  Level Houston Center
Sat 07:03:00 PM 30.4794 -87.8264 289° West 156 180 6,500  Level Houston Center
Sat 07:04:01 PM 30.4917 -87.8725 287° West 153 176 6,500  Level Houston Center
Sat 07:05:03 PM 30.5081 -87.9289 289° West 152 175 6,500  Level Houston Center
Sat 07:06:05 PM 30.5208 -87.9761 287° West 153 176 6,500  Level Houston Center
Sat 07:07:06 PM 30.5344 -88.0225 289° West 153 176 6,500  Level Houston Center
Sat 07:08:08 PM 30.5475 -88.0703 288° West 153 176 6,500  Level Houston Center
Sat 07:09:09 PM 30.5606 -88.1183 288° West 156 180 6,500  Level Houston Center
Sat 07:10:11 PM 30.5742 -88.1650 289° West 154 177 6,500  Level Houston Center
Sat 07:11:13 PM 30.5878 -88.2133 288° West 155 178 6,500  Level Houston Center
Sat 07:12:14 PM 30.6003 -88.2622 287° West 156 180 6,500  Level Houston Center
Sat 07:13:16 PM 30.6172 -88.3189 289° West 156 180 6,500  Level Houston Center
Sat 07:14:18 PM 30.6317 -88.3681 289° West 159 183 6,500  Level Houston Center
Sat 07:15:19 PM 30.6450 -88.4164 288° West 158 182 6,500  Level Houston Center
Sat 07:16:21 PM 30.6581 -88.4653 287° West 159 183 6,500  Level Houston Center
Sat 07:17:22 PM 30.6719 -88.5133 289° West 158 182 6,500 98 Level Houston Center
Sat 07:18:24 PM 30.6847 -88.5600 288° West 153 176 6,700 97 Climbing Houston Center
Sat 07:19:26 PM 30.6978 -88.6069 288° West 153 176 6,700  Level Houston Center
Sat 07:20:27 PM 30.7106 -88.6553 287° West 155 178 6,700  Level Houston Center
Sat 07:21:29 PM 30.7244 -88.7047 288° West 159 183 6,700  Level Houston Center
Sat 07:22:30 PM 30.7411 -88.7647 288° West 162 186 6,700  Level Houston Center
Sat 07:23:32 PM 30.7544 -88.8142 287° West 161 185 6,700  Level Houston Center
Sat 07:24:33 PM 30.7681 -88.8650 287° West 164 189 6,700  Level Houston Center
Sat 07:25:35 PM 30.7819 -88.9150 288° West 164 189 6,700  Level Houston Center
Sat 07:26:37 PM 30.7958 -88.9619 289° West 162 186 6,700  Level Houston Center
Sat 07:27:38 PM 30.8097 -89.0131 288° West 165 190 6,700  Level Houston Center
Sat 07:28:40 PM 30.8272 -89.0742 288° West 166 191 6,700  Level Houston Center
Sat 07:29:41 PM 30.8414 -89.1247 288° West 166 191 6,700  Level Houston Center
Sat 07:30:43 PM 30.8550 -89.1756 287° West 165 190 6,700  Level Houston Center
Sat 07:31:44 PM 30.8686 -89.2258 288° West 165 190 6,700  Level Houston Center
Sat 07:32:46 PM 30.8819 -89.2767 287° West 164 189 6,700  Level Houston Center
Sat 07:33:48 PM 30.8953 -89.3281 287° West 165 190 6,700  Level Houston Center
Sat 07:34:49 PM 30.9100 -89.3792 289° West 167 192 6,700  Level Houston Center
Sat 07:35:51 PM 30.9272 -89.4403 288° West 166 191 6,700  Level Houston Center
Sat 07:36:52 PM 30.9400 -89.4908 286° West 165 190 6,700  Level Houston Center
Sat 07:37:54 PM 30.9542 -89.5411 288° West 164 189 6,700  Level Houston Center
Sat 07:38:55 PM 30.9683 -89.5933 288° West 168 193 6,700  Level Houston Center
Sat 07:39:57 PM 30.9819 -89.6453 287° West 167 192 6,700  Level Houston Center
Sat 07:40:59 PM 30.9953 -89.6964 287° West 167 192 6,700  Level Houston Center
Sat 07:42:00 PM 31.0092 -89.7475 288° West 167 192 6,700  Level Houston Center
Sat 07:43:02 PM 31.0256 -89.8089 287° West 167 192 6,700  Level Houston Center
Sat 07:44:03 PM 31.0392 -89.8600 287° West 165 190 6,700  Level Houston Center
Sat 07:45:05 PM 31.0525 -89.9106 287° West 165 190 6,700  Level Houston Center
Sat 07:46:07 PM 31.0658 -89.9608 287° West 164 189 6,700  Level Houston Center
Sat 07:47:08 PM 31.0792 -90.0119 287° West 165 190 6,700  Level Houston Center
Sat 07:48:10 PM 31.0931 -90.0633 288° West 166 191 6,700  Level Houston Center
Sat 07:49:11 PM 31.1064 -90.1136 287° West 164 189 6,700  Level Houston Center
Sat 07:50:13 PM 31.1217 -90.1736 287° West 162 186 6,700  Level Houston Center
Sat 07:51:15 PM 31.1350 -90.2236 287° West 162 186 6,700  Level Houston Center
Sat 07:52:16 PM 31.1472 -90.2733 286° West 160 184 6,700  Level Houston Center
Sat 07:53:18 PM 31.1617 -90.3233 289° West 163 188 6,700  Level Houston Center
Sat 07:54:19 PM 31.1744 -90.3719 287° West 159 183 6,700  Level Houston Center
Sat 07:55:21 PM 31.1872 -90.4214 287° West 159 183 6,700  Level Houston Center
Sat 07:56:23 PM 31.2003 -90.4692 288° West 158 182 6,700  Level Houston Center
Sat 07:57:24 PM 31.2158 -90.5269 287° West 156 180 6,700  Level Houston Center
Sat 07:58:26 PM 31.2283 -90.5761 287° West 157 181 6,700  Level Houston Center
Sat 07:59:27 PM 31.2408 -90.6244 287° West 157 181 6,700  Level Houston Center
Sat 08:00:29 PM 31.2542 -90.6736 288° West 158 182 6,700  Level Houston Center
Sat 08:01:30 PM 31.2667 -90.7239 286° West 160 184 6,700  Level Houston Center
Sat 08:02:32 PM 31.2800 -90.7717 288° West 157 181 6,700  Level Houston Center
Sat 08:03:33 PM 31.2931 -90.8214 287° West 159 183 6,700  Level Houston Center
Sat 08:04:35 PM 31.3056 -90.8711 286° West 160 184 6,700  Level Houston Center
Sat 08:05:36 PM 31.3200 -90.9317 286° West 161 185 6,700  Level Houston Center
Sat 08:06:38 PM 31.3331 -90.9806 287° West 159 183 6,700  Level Houston Center
Sat 08:07:39 PM 31.3464 -91.0292 288° West 158 182 6,700  Level Houston Center
Sat 08:08:41 PM 31.3578 -91.0806 285° West 162 186 6,700  Level Houston Center
Sat 08:09:42 PM 31.3725 -91.1314 289° West 160 184 6,700  Level Houston Center
Sat 08:10:43 PM 31.3842 -91.1808 285° West 158 182 6,700  Level Houston Center
Sat 08:11:45 PM 31.3953 -91.2303 285° West 158 182 6,700  Level Houston Center
Sat 08:12:46 PM 31.4092 -91.2775 289° West 155 178 6,700  Level Houston Center
Sat 08:13:48 PM 31.4222 -91.3269 287° West 158 182 6,700  Level Houston Center
Sat 08:14:49 PM 31.4353 -91.3858 285° West 157 181 6,700  Level Houston Center
Sat 08:15:50 PM 31.4492 -91.4350 288° West 159 183 6,700 -75 Level Houston Center
Sat 08:16:09 PM 31.4506 -91.4528 275° West 158 182 6,600  Descending Houston Center
Sat 08:16:52 PM 31.4603 -91.4833 290° West 156 180 6,700  Climbing Houston Center
Sat 08:17:16 PM 31.4650 -91.5075 283° West 157 181 6,600  Descending Houston Center
Sat 08:17:53 PM 31.4725 -91.5331 289° West 157 181 6,700  Climbing Houston Center
Sat 08:18:17 PM 31.4772 -91.5575 283° West 162 186 6,600  Descending Houston Center
Sat 08:18:54 PM 31.4839 -91.5836 287° West 159 183 6,700  Climbing Houston Center
Sat 08:19:17 PM 31.4892 -91.6078 284° West 160 184 6,600  Descending Houston Center
Sat 08:19:56 PM 31.4978 -91.6336 291° West 160 184 6,700  Climbing Houston Center
Sat 08:20:18 PM 31.5036 -91.6600 285° West 160 184 6,600  Descending Houston Center
Sat 08:20:57 PM 31.5103 -91.6842 288° West 161 185 6,700  Climbing Houston Center
Sat 08:21:18 PM 31.5156 -91.7103 283° West 161 185 6,600  Descending Houston Center
Sat 08:21:59 PM 31.5222 -91.7339 288° West 160 184 6,700  Climbing Houston Center
Sat 08:22:19 PM 31.5278 -91.7603 284° West 158 182 6,600  Descending Houston Center
Sat 08:23:00 PM 31.5378 -91.7925 290° West 159 183 6,700  Climbing Houston Center
Sat 08:23:20 PM 31.5394 -91.8081 277° West 158 182 6,600  Descending Houston Center
Sat 08:24:01 PM 31.5497 -91.8428 289° West 159 183 6,700  Climbing Houston Center
Sat 08:24:20 PM 31.5517 -91.8608 277° West 159 183 6,600  Descending Houston Center
Sat 08:25:03 PM 31.5614 -91.8922 290° West 159 183 6,700  Climbing Houston Center
Sat 08:25:21 PM 31.5656 -91.9083 287° West 161 185 6,600  Descending Houston Center
Sat 08:26:04 PM 31.5736 -91.9419 286° West 159 183 6,700  Climbing Houston Center
Sat 08:26:21 PM 31.5778 -91.9611 284° West 159 183 6,600  Descending Houston Center
Sat 08:27:05 PM 31.5861 -91.9914 288° West 159 183 6,700  Climbing Houston Center
Sat 08:27:22 PM 31.5897 -92.0136 281° West 161 185 6,600  Descending Houston Center
Sat 08:28:07 PM 31.5983 -92.0431 289° West 161 185 6,700  Climbing Houston Center
Sat 08:28:23 PM 31.6017 -92.0639 281° West 165 190 6,600  Descending Houston Center
Sat 08:29:08 PM 31.6117 -92.0942 291° West 163 188 6,700  Climbing Houston Center
Sat 08:29:23 PM 31.6158 -92.1164 282° West 166 191 6,600  Descending Houston Center
Sat 08:30:09 PM 31.6242 -92.1458 288° West 164 189 6,700  Climbing Houston Center
Sat 08:30:24 PM 31.6278 -92.1667 282° West 163 188 6,600  Descending Houston Center
Sat 08:31:10 PM 31.6394 -92.2061 289° West 163 188 6,700 56 Climbing Houston Center
Sat 08:32:12 PM 31.6511 -92.2581 285° West 164 189 6,700  Level Houston Center
Sat 08:33:13 PM 31.6642 -92.3086 287° West 163 188 6,700  Level Houston Center
Sat 08:34:14 PM 31.6756 -92.3575 285° West 159 183 6,700  Level Houston Center
Sat 08:35:15 PM 31.6872 -92.4075 285° West 159 183 6,700  Level Houston Center
Sat 08:36:17 PM 31.6997 -92.4575 286° West 161 185 6,700  Level Houston Center
Sat 08:37:18 PM 31.7119 -92.5086 286° West 161 185 6,700  Level Houston Center
Sat 08:38:19 PM 31.7244 -92.5589 286° West 162 186 6,700  Level Houston Center
Sat 08:39:20 PM 31.7364 -92.6097 285° West 162 186 6,700  Level Houston Center
Sat 08:40:30 PM 31.7519 -92.6769 285° West 160 184 6,700 49 Level Houston Center
Sat 08:41:22 PM 31.7619 -92.7203 285° West 160 184 6,800  Climbing Houston Center
Sat 08:42:31 PM 31.7733 -92.7803 283° West 162 186 6,700  Descending Houston Center
Sat 08:43:25 PM 31.7833 -92.8231 285° West 162 186 6,800 52 Climbing Houston Center
Sat 08:44:26 PM 31.7947 -92.8742 285° West 162 186 6,800  Level Houston Center
Sat 08:45:27 PM 31.8053 -92.9247 284° West 160 184 6,800  Level Houston Center
Sat 08:46:28 PM 31.8164 -92.9758 284° West 162 186 6,800  Level Houston Center
Sat 08:47:29 PM 31.8269 -93.0264 284° West 161 185 6,800  Level Houston Center
Sat 08:48:30 PM 31.8386 -93.0764 285° West 158 182 6,800  Level Houston Center
Sat 08:49:33 PM 31.8500 -93.1264 285° West 159 183 6,800  Level Houston Center
Sat 08:50:33 PM 31.8667 -93.1853 288° West 159 183 6,800  Level Houston Center
Sat 08:51:34 PM 31.8769 -93.2356 284° West 159 183 6,800  Level Houston Center
Sat 08:52:35 PM 31.8883 -93.2839 286° West 154 177 6,800 -49 Level Houston Center
Sat 08:53:36 PM 31.8992 -93.3392 283° West 159 183 6,700 -45 Descending Fort Worth Center
Sat 08:54:49 PM 31.9114 -93.4000 283° West 157 181 6,700 -90 Level Fort Worth Center
Sat 08:55:49 PM 31.9236 -93.4508 286° West 159 183 6,500 -248 Descending Fort Worth Center
Sat 08:56:50 PM 31.9356 -93.5017 285° West 162 186 6,200 -246 Descending Fort Worth Center
Sat 08:57:51 PM 31.9494 -93.5500 289° West 160 184 6,000 -248 Descending Fort Worth Center
Sat 08:58:51 PM 31.9597 -93.6058 282° West 161 185 5,700 -248 Descending Fort Worth Center
Sat 08:59:52 PM 31.9717 -93.6569 285° West 163 188 5,500 -234 Descending Fort Worth Center
Sat 09:00:59 PM 31.9858 -93.7125 287° West 160 184 5,200 -316 Descending Fort Worth Center
Sat 09:02:05 PM 32.0000 -93.7708 286° West 163 188 4,800 -313 Descending Fort Worth Center
Sat 09:02:54 PM 32.0075 -93.8097 283° West 167 192 4,600 -110 Descending Fort Worth Center
Sat 09:03:54 PM 32.0236 -93.8631 290° West 166 191 4,600  Level Fort Worth Center
Sat 09:04:49 PM 32.0311 -93.9092 281° West 159 183 4,600  Level Fort Worth Center
Sat 09:05:50 PM 32.0408 -93.9603 283° West 160 184 4,600  Level Fort Worth Center
Sat 09:06:44 PM 32.0547 -94.0064 290° West 160 184 4,600  Level Fort Worth Center
Sat 09:07:51 PM 32.0664 -94.0597 284° West 158 182 4,600 -48 Level Fort Worth Center
Sat 09:09:00 PM 32.0775 -94.1161 283° West  Level FlightAware Approximate
Sat 09:16:00 PM 32.1519 -94.4572 287° West  Level FlightAware Approximate
Sat 09:17:00 PM 32.1639 -94.5055 286° West  Level FlightAware Approximate
Sat 09:18:00 PM 32.1760 -94.5538 286° West  Level FlightAware Approximate
Sat 09:19:00 PM 32.1874 -94.6023 284° West  Level FlightAware Approximate
Sat 09:20:00 PM 32.1977 -94.6512 284° West  Level FlightAware Approximate
Sat 09:21:00 PM 32.2080 -94.7001 284° West  Level FlightAware Approximate
Sat 09:22:00 PM 32.2183 -94.7489 284° West  Level FlightAware Approximate
Sat 09:23:00 PM 32.2286 -94.7978 284° West  Level FlightAware Approximate
Sat 09:24:00 PM 32.2388 -94.8467 284° West  Level FlightAware Approximate
Sat 09:25:00 PM 32.2491 -94.8957 284° West  Level FlightAware Approximate
Sat 09:26:00 PM 32.2594 -94.9446 284° West  Level FlightAware Approximate
Sat 09:27:00 PM 32.2698 -94.9935 284° West  Level FlightAware Approximate
Sat 09:28:00 PM 32.2801 -95.0424 284° West  Level FlightAware Approximate
Sat 09:29:00 PM 32.2904 -95.0913 284° West  Level FlightAware Approximate
Sat 09:30:00 PM 32.3007 -95.1403 284° West  Level FlightAware Approximate
Sat 09:31:00 PM 32.3109 -95.1892 284° West  Level FlightAware Approximate
Sat 09:32:00 PM 32.3216 -95.2380 285° West  Level FlightAware Approximate
Sat 09:33:00 PM 32.3329 -95.2867 285° West  Level FlightAware Approximate
Sat 09:34:00 PM 32.3442 -95.3353 285° West  Level FlightAware Approximate
Sat 09:35:00 PM 32.3554 -95.3840 285° West  Level FlightAware Approximate
Sat 09:36:00 PM 32.3666 -95.4327 285° West  Level FlightAware Approximate
Sat 09:37:00 PM 32.3778 -95.4814 285° West  Level FlightAware Approximate
Sat 09:38:00 PM 32.3890 -95.5301 285° West  Level FlightAware Approximate
Sat 09:39:00 PM 32.4002 -95.5788 285° West  Level FlightAware Approximate
Sat 09:40:00 PM 32.4113 -95.6275 285° West  Level FlightAware Approximate
Sat 09:41:00 PM 32.4225 -95.6763 285° West  Level FlightAware Approximate
Sat 09:42:00 PM 32.4336 -95.7251 285° West  Level FlightAware Approximate
Sat 09:43:00 PM 32.4447 -95.7738 285° West  Level FlightAware Approximate
Sat 09:44:00 PM 32.4557 -95.8226 285° West  Level FlightAware Approximate
Sat 09:50:00 PM 32.5218 -96.1155 285° West  Level FlightAware Approximate
Sat 09:51:00 PM 32.5327 -96.1644 285° West  Level FlightAware Approximate
Sat 09:52:00 PM 32.5436 -96.2133 285° West  Level FlightAware Approximate
Sat 09:52:36 PM 32.5833 -96.3667 289° West 165 190 2,400  Level Dallas / Fort Worth TRACON
Sat 09:53:00 PM 32.5545 -96.2622 285° West  Level FlightAware Approximate
Sat 09:53:42 PM 32.5833 -96.4333 270° West 163 188 2,400  Level Dallas / Fort Worth TRACON
Sat 09:54:00 PM 32.5654 -96.3111 285° West  Level FlightAware Approximate
Sat 09:54:48 PM 32.6000 -96.4833 292° West 164 189 2,400  Level Dallas / Fort Worth TRACON
Sat 09:55:00 PM 32.5722 -96.3610 278° West  Level FlightAware Approximate
Sat 09:55:42 PM 32.6167 -96.5333 292° West 167 192 2,400  Level Dallas / Fort Worth TRACON
Sat 09:56:00 PM 32.5785 -96.4110 278° West  Level FlightAware Approximate
Sat 09:56:42 PM 32.6167 -96.5833 270° West 167 192 2,300  Level Dallas / Fort Worth TRACON
Sat 09:57:00 PM 32.5864 -96.4606 289° West  Level FlightAware Approximate
Sat 09:57:42 PM 32.6167 -96.6500 270° West 179 206 2,000  Level Dallas / Fort Worth TRACON
Sat 09:58:42 PM 32.6167 -96.7000 270° West 176 203 2,000 -158 Level Dallas / Fort Worth TRACON
Sat 09:59:36 PM 32.6167 -96.7500 270° West 173 199 1,700 -250 Descending Dallas / Fort Worth TRACON
Sat 10:00:42 PM 32.6333 -96.8167 287° West 153 176 1,500 -286 Descending Dallas / Fort Worth TRACON
Sat 10:01:42 PM 32.6667 -96.8500 320° Northwest 127 146 1,100 -400 Descending Dallas / Fort Worth TRACON
Sat 10:03:00 PM 32.6667 -96.8667 270° West  Level FlightAware Approximate
Sat 10:10:00 PM 32.6809 -96.8682 270° West  Level Estimated
Sat 10:11:00 PM 32.6809 -96.8682 270° West  Level Estimated
Sat 10:12:00 PM 32.6809 -96.8682 270° West  Level Estimated
Sat 10:13:00 PM 32.6809 -96.8682 270° West  Level Estimated
Sat 10:14:00 PM 32.6809 -96.8682 270° West  Level Estimated
Sat 10:15:00 PM 32.6809 -96.8682 270° West  Level Estimated
Sat 10:16:00 PM 32.6809 -96.8682 270° West  Level Estimated
Sat 10:17:00 PM 32.6809 -96.8682 270° West  Level Estimated
Sat 10:18:00 PM 32.6809 -96.8682 270° West  Level Estimated
Sat 10:19:00 PM 32.6809 -96.8682 270° West  Level Estimated
Sat 10:20:00 PM 32.6809 -96.8682 270° West  Level Estimated
Sat 10:21:00 PM 32.6809 -96.8682 270° West  Level Estimated
Sat 10:22:00 PM 32.6809 -96.8682 270° West  Level Estimated
Sat 10:23:00 PM 32.6809 -96.8682 270° West  Level Estimated
Sat 10:24:00 PM 32.6809 -96.8682 270° West  Level Estimated
Sat 10:25:00 PM 32.6809 -96.8682 270° West  Level Estimated
Sat 10:26:00 PM 32.6809 -96.8682 270° West  Level Estimated
Sat 10:27:00 PM 32.6809 -96.8682 270° West  Level Estimated
Sat 10:28:00 PM 32.6809 -96.8682 270° West  Level Estimated
Sat 10:29:00 PM 32.6809 -96.8682 270° West  Level Estimated
Sat 10:30:00 PM 32.6809 -96.8682 270° West  Level Estimated
Sat 10:31:00 PM 32.6809 -96.8682 270° West  Level Estimated
Sat 10:32:00 PM 32.6809 -96.8682 270° West  Level Estimated
Sat 10:33:00 PM 32.6809 -96.8682 270° West  Level Estimated
Sat 10:34:00 PM 32.6809 -96.8682 270° West  Level Estimated

Login

Don't have an account? Register now (free) for customized features, flight alerts, and more!